createdAt,value
2022-09-14T00:01:26.554Z,6.18
2022-09-14T00:03:56.559Z,8.88
2022-09-14T00:06:23.873Z,7.33
2022-09-14T00:08:52.770Z,8.27
2022-09-14T00:11:20.902Z,12.27
2022-09-14T00:13:48.458Z,6.20
2022-09-14T00:16:18.281Z,5.05
2022-09-14T00:18:45.292Z,8.50
2022-09-14T00:21:13.177Z,6.05
2022-09-14T00:23:42.176Z,6.80
2022-09-14T00:26:14.015Z,8.95
2022-09-14T00:28:46.288Z,6.22
2022-09-14T00:31:14.159Z,10.48
2022-09-14T00:33:45.221Z,6.20
2022-09-14T00:36:14.655Z,7.18
2022-09-14T00:38:42.135Z,9.93
2022-09-14T00:41:13.483Z,6.60
2022-09-14T00:43:56.925Z,7.78
2022-09-14T00:46:25.732Z,7.65
2022-09-14T00:48:54.200Z,9.32
2022-09-14T00:51:22.355Z,9.10
2022-09-14T00:53:50.319Z,8.80
2022-09-14T00:56:17.627Z,6.65
2022-09-14T00:58:48.210Z,8.20
2022-09-14T01:01:15.596Z,11.30
2022-09-14T01:03:42.763Z,5.97
2022-09-14T01:06:31.188Z,12.18
2022-09-14T01:09:18.376Z,7.93
2022-09-14T01:12:20.724Z,7.05
2022-09-14T01:15:07.230Z,8.13
2022-09-14T01:17:45.832Z,9.50
2022-09-14T01:20:35.304Z,8.88
2022-09-14T01:23:20.319Z,9.93
2022-09-14T01:26:07.005Z,10.77
2022-09-14T01:28:39.078Z,9.00
2022-09-14T01:31:13.339Z,19.05
2022-09-14T01:33:55.035Z,6.20
2022-09-14T01:36:23.647Z,9.18
2022-09-14T01:38:53.874Z,12.40
2022-09-14T01:43:55.158Z,16.48
2022-09-14T01:46:29.887Z,23.98
2022-09-14T01:49:06.249Z,19.02
2022-09-14T01:51:54.088Z,18.77
2022-09-14T01:54:43.795Z,19.77
2022-09-14T01:57:48.271Z,16.40
2022-09-14T02:00:17.492Z,12.40
2022-09-14T02:02:50.125Z,12.32
2022-09-14T02:05:43.597Z,6.78
2022-09-14T02:08:10.527Z,13.18
2022-09-14T02:10:37.621Z,8.95
2022-09-14T02:13:04.605Z,11.18
2022-09-14T02:15:31.572Z,12.05
2022-09-14T02:17:58.541Z,17.65
2022-09-14T02:20:34.249Z,12.82
2022-09-14T02:23:01.350Z,11.73
2022-09-14T02:25:28.401Z,12.75
2022-09-14T02:27:55.433Z,9.38
2022-09-14T02:30:22.922Z,7.15
2022-09-14T02:33:15.144Z,8.95
2022-09-14T02:35:50.082Z,9.38
2022-09-14T02:38:20.219Z,10.93
2022-09-14T02:40:53.581Z,5.15
2022-09-14T02:43:39.396Z,5.32
2022-09-14T02:46:18.370Z,15.57
2022-09-14T02:49:02.097Z,14.57
2022-09-14T02:51:54.649Z,9.02
2022-09-14T02:54:35.087Z,5.97
2022-09-14T02:57:04.332Z,7.22
2022-09-14T02:59:31.529Z,8.82
2022-09-14T03:02:00.527Z,6.57
2022-09-14T03:04:28.550Z,5.25
2022-09-14T03:06:55.954Z,12.60
2022-09-14T03:09:22.981Z,7.97
2022-09-14T03:11:49.868Z,11.10
2022-09-14T03:14:16.816Z,6.65
2022-09-14T03:16:43.865Z,10.60
2022-09-14T03:19:12.351Z,10.40
2022-09-14T03:21:39.919Z,7.60
2022-09-14T03:24:07.203Z,7.50
2022-09-14T03:26:36.922Z,11.98
2022-09-14T03:29:04.867Z,7.45
2022-09-14T03:31:32.309Z,5.53
2022-09-14T03:34:01.077Z,11.32
2022-09-14T03:36:30.386Z,8.55
2022-09-14T03:38:59.357Z,17.33
2022-09-14T03:41:26.677Z,10.60
2022-09-14T03:43:53.616Z,7.80
2022-09-14T03:46:25.028Z,14.55
2022-09-14T03:48:53.817Z,9.38
2022-09-14T03:51:20.954Z,17.98
2022-09-14T03:53:48.426Z,6.88
2022-09-14T03:56:19.274Z,9.50
2022-09-14T03:58:47.376Z,10.82
2022-09-14T04:01:17.057Z,12.55
2022-09-14T04:03:44.992Z,15.27
2022-09-14T04:06:12.615Z,10.23
2022-09-14T04:08:41.803Z,11.38
2022-09-14T04:11:24.094Z,9.70
2022-09-14T04:13:52.061Z,8.55
2022-09-14T04:16:23.665Z,10.07
2022-09-14T04:18:50.671Z,10.85
2022-09-14T04:21:20.028Z,8.57
2022-09-14T04:26:34.999Z,6.32
2022-09-14T04:29:02.152Z,7.82
2022-09-14T04:31:30.959Z,6.20
2022-09-14T04:33:58.259Z,5.90
2022-09-14T04:36:29.520Z,7.80
2022-09-14T04:38:58.534Z,9.18
2022-09-14T04:41:26.540Z,11.60
2022-09-14T04:43:55.883Z,10.30
2022-09-14T04:46:32.276Z,9.48
2022-09-14T04:48:59.636Z,8.30
2022-09-14T04:51:29.860Z,14.77
2022-09-14T04:53:59.745Z,12.35
2022-09-14T04:56:28.681Z,6.38
2022-09-14T04:59:01.922Z,8.90
2022-09-14T05:01:35.587Z,11.35
2022-09-14T05:04:04.452Z,8.93
2022-09-14T05:06:34.618Z,12.90
2022-09-14T05:09:03.449Z,9.82
2022-09-14T05:11:34.144Z,12.63
2022-09-14T05:14:02.224Z,8.40
2022-09-14T05:16:31.387Z,12.43
2022-09-14T05:19:02.114Z,8.88
2022-09-14T05:21:30.999Z,12.73
2022-09-14T05:24:08.237Z,7.15
2022-09-14T05:26:35.653Z,4.53
2022-09-14T05:29:02.947Z,7.45
2022-09-14T05:31:31.977Z,7.13
2022-09-14T05:33:59.753Z,8.38
2022-09-14T05:36:27.150Z,12.52
2022-09-14T05:38:54.212Z,7.57
2022-09-14T05:41:21.383Z,8.43
2022-09-14T05:43:48.485Z,7.43
2022-09-14T05:46:20.189Z,8.85
2022-09-14T05:48:48.448Z,6.97
2022-09-14T05:51:17.870Z,9.10
2022-09-14T05:53:55.742Z,10.07
2022-09-14T05:56:24.802Z,4.03
2022-09-14T05:58:52.817Z,9.73
2022-09-14T06:01:29.058Z,9.38
2022-09-14T06:04:05.042Z,8.15
2022-09-14T06:06:32.793Z,8.63
2022-09-14T06:09:00.490Z,8.45
2022-09-14T06:11:31.131Z,12.63
2022-09-14T06:13:58.540Z,6.43
2022-09-14T06:16:27.594Z,9.30
2022-09-14T06:18:56.358Z,6.63
2022-09-14T06:21:24.069Z,6.38
2022-09-14T06:23:52.108Z,10.60
2022-09-14T06:26:19.204Z,5.32
2022-09-14T06:28:46.186Z,11.00
2022-09-14T06:31:15.165Z,10.35
2022-09-14T06:33:46.028Z,9.38
2022-09-14T06:36:15.548Z,7.85
2022-09-14T06:38:42.736Z,6.28
2022-09-14T06:41:12.657Z,16.85
2022-09-14T06:43:41.714Z,8.63
2022-09-14T06:46:15.534Z,9.00
2022-09-14T06:48:48.890Z,16.75
2022-09-14T06:51:29.290Z,11.18
2022-09-14T06:54:00.191Z,8.82
2022-09-14T06:56:33.676Z,11.07
2022-09-14T06:59:00.740Z,6.40
2022-09-14T07:01:28.021Z,11.63
2022-09-14T07:03:55.143Z,10.02
2022-09-14T07:06:24.731Z,8.75
2022-09-14T07:08:53.017Z,8.95
2022-09-14T07:11:23.684Z,9.88
2022-09-14T07:13:50.650Z,11.05
2022-09-14T07:16:17.569Z,13.80
2022-09-14T07:18:44.532Z,12.50
2022-09-14T07:21:14.842Z,9.45
2022-09-14T07:26:16.701Z,11.80
2022-09-14T07:28:45.880Z,11.48
2022-09-14T07:31:19.479Z,8.52
2022-09-14T07:33:47.092Z,11.15
2022-09-14T07:36:14.902Z,11.55
2022-09-14T07:38:52.035Z,9.23
2022-09-14T07:41:22.096Z,11.15
2022-09-14T07:43:50.510Z,9.88
2022-09-14T07:46:17.738Z,11.40
2022-09-14T07:48:44.761Z,14.40
2022-09-14T07:51:12.365Z,5.90
2022-09-14T07:53:42.867Z,9.65
2022-09-14T07:56:13.577Z,6.85
2022-09-14T07:58:41.501Z,4.45
2022-09-14T08:01:14.187Z,7.25
2022-09-14T08:03:43.546Z,10.32
2022-09-14T08:06:19.381Z,15.07
2022-09-14T08:08:49.029Z,11.27
2022-09-14T08:11:25.186Z,5.05
2022-09-14T08:13:54.458Z,10.02
2022-09-14T08:16:22.604Z,10.20
2022-09-14T08:18:55.553Z,11.68
2022-09-14T08:21:23.279Z,7.70
2022-09-14T08:23:50.625Z,7.22
2022-09-14T08:26:20.279Z,9.90
2022-09-14T08:28:48.566Z,12.23
2022-09-14T08:31:24.514Z,7.78
2022-09-14T08:33:56.583Z,14.63
2022-09-14T08:36:24.654Z,4.60
2022-09-14T08:38:52.184Z,13.10
2022-09-14T08:41:32.958Z,16.00
2022-09-14T08:44:13.699Z,5.15
2022-09-14T08:46:48.484Z,9.43
2022-09-14T08:49:28.880Z,11.55
2022-09-14T08:51:57.100Z,12.00
2022-09-14T08:54:24.216Z,9.15
2022-09-14T08:57:09.468Z,11.68
2022-09-14T09:00:06.143Z,14.73
2022-09-14T09:02:57.999Z,9.55
2022-09-14T09:05:40.464Z,11.10
2022-09-14T09:08:19.777Z,9.88
2022-09-14T09:10:47.906Z,7.45
2022-09-14T09:13:21.603Z,11.35
2022-09-14T09:15:51.948Z,5.25
2022-09-14T09:20:58.440Z,8.80
2022-09-14T09:23:29.239Z,9.48
2022-09-14T09:26:17.480Z,7.88
2022-09-14T09:28:53.329Z,16.33
2022-09-14T09:31:36.001Z,11.73
2022-09-14T09:34:29.304Z,9.35
2022-09-14T09:37:19.369Z,9.05
2022-09-14T09:39:46.870Z,11.18
2022-09-14T09:42:28.301Z,8.50
2022-09-14T09:45:03.549Z,10.07
2022-09-14T09:47:39.379Z,6.07
2022-09-14T09:50:18.735Z,9.30
2022-09-14T09:52:57.371Z,11.65
2022-09-14T09:55:28.436Z,14.98
2022-09-14T09:57:55.553Z,9.75
2022-09-14T10:00:27.723Z,11.02
2022-09-14T10:02:55.391Z,11.85
2022-09-14T10:05:33.290Z,12.98
2022-09-14T10:08:02.381Z,8.98
2022-09-14T10:10:35.398Z,10.85
2022-09-14T10:13:05.078Z,12.60
2022-09-14T10:15:35.240Z,9.65
2022-09-14T10:18:15.422Z,16.38
2022-09-14T10:20:44.462Z,8.57
2022-09-14T10:23:20.411Z,11.23
2022-09-14T10:25:50.471Z,8.38
2022-09-14T10:28:26.346Z,16.27
2022-09-14T10:30:59.620Z,8.25
2022-09-14T10:33:26.947Z,12.38
2022-09-14T10:35:56.871Z,17.95
2022-09-14T10:38:36.191Z,14.55
2022-09-14T10:41:34.294Z,9.30
2022-09-14T10:44:30.115Z,13.73
2022-09-14T10:47:32.133Z,12.85
2022-09-14T10:50:12.894Z,12.57
2022-09-14T10:53:03.827Z,12.43
2022-09-14T10:55:47.569Z,8.68
2022-09-14T10:58:44.351Z,11.10
2022-09-14T11:01:42.977Z,9.52
2022-09-14T11:04:44.098Z,11.52
2022-09-14T11:07:18.510Z,12.13
2022-09-14T11:10:01.528Z,10.07
2022-09-14T11:12:48.669Z,12.25
2022-09-14T11:15:32.105Z,13.35
2022-09-14T11:18:39.963Z,11.27
2022-09-14T11:21:35.030Z,10.02
2022-09-14T11:24:37.930Z,9.57
2022-09-14T11:27:30.231Z,7.68
2022-09-14T11:30:06.120Z,14.35
2022-09-14T11:32:42.463Z,8.52
2022-09-14T11:35:18.244Z,7.80
2022-09-14T11:37:51.015Z,13.38
2022-09-14T11:40:32.981Z,9.45
2022-09-14T11:43:09.893Z,19.42
2022-09-14T11:45:44.107Z,9.63
2022-09-14T11:48:42.806Z,11.23
2022-09-14T11:51:22.548Z,15.23
2022-09-14T11:53:51.023Z,7.80
2022-09-14T11:56:30.725Z,10.27
2022-09-14T11:59:00.437Z,12.68
2022-09-14T12:01:39.523Z,14.77
2022-09-14T12:04:09.404Z,15.10
2022-09-14T12:06:36.790Z,12.02
2022-09-14T12:09:13.275Z,11.93
2022-09-14T12:11:42.436Z,8.20
2022-09-14T12:14:24.665Z,6.65
2022-09-14T12:17:39.563Z,10.82
2022-09-14T12:20:36.945Z,13.27
2022-09-14T12:23:13.344Z,11.60
2022-09-14T12:26:01.767Z,12.60
2022-09-14T12:28:38.319Z,11.27
2022-09-14T12:31:13.315Z,8.98
2022-09-14T12:33:42.036Z,15.05
2022-09-14T12:36:22.512Z,19.38
2022-09-14T12:38:49.979Z,9.45
2022-09-14T12:41:20.303Z,12.27
2022-09-14T12:46:21.327Z,12.00
2022-09-14T12:51:36.725Z,11.65
2022-09-14T12:54:09.491Z,8.82
2022-09-14T12:57:10.458Z,7.13
2022-09-14T13:00:15.871Z,11.23
2022-09-14T13:03:29.585Z,7.78
2022-09-14T13:05:56.726Z,8.77
2022-09-14T13:08:26.869Z,9.75
2022-09-14T13:10:54.284Z,8.10
2022-09-14T13:13:25.741Z,6.15
2022-09-14T13:15:55.932Z,12.32
2022-09-14T13:21:00.424Z,8.57
2022-09-14T13:23:41.531Z,6.97
2022-09-14T13:26:16.410Z,10.05
2022-09-14T13:28:46.083Z,10.80
2022-09-14T13:31:17.854Z,10.15
2022-09-14T13:33:51.576Z,8.90
2022-09-14T13:36:25.478Z,13.15
2022-09-14T13:38:53.430Z,8.95
2022-09-14T13:41:25.196Z,13.02
2022-09-14T13:43:55.809Z,10.30
2022-09-14T13:46:25.152Z,9.20
2022-09-14T13:48:53.217Z,5.30
2022-09-14T13:51:28.629Z,5.88
2022-09-14T13:53:58.879Z,11.60
2022-09-14T13:59:07.382Z,8.10
2022-09-14T14:01:46.630Z,6.95
2022-09-14T14:04:37.978Z,9.50
2022-09-14T14:07:15.282Z,10.23
2022-09-14T14:09:54.106Z,8.90
2022-09-14T14:12:26.658Z,8.25
2022-09-14T14:15:01.870Z,10.40
2022-09-14T14:17:29.141Z,7.75
2022-09-14T14:20:24.013Z,6.05
2022-09-14T14:22:58.768Z,12.38
2022-09-14T14:25:33.486Z,8.50
2022-09-14T14:28:06.606Z,6.57
2022-09-14T14:30:40.416Z,8.52
2022-09-14T14:33:13.540Z,6.80
2022-09-14T14:35:41.685Z,10.48
2022-09-14T14:38:09.567Z,10.43
2022-09-14T14:40:38.303Z,9.77
2022-09-14T14:43:06.241Z,10.73
2022-09-14T14:45:36.328Z,10.10
2022-09-14T14:48:04.554Z,9.65
2022-09-14T14:50:34.162Z,8.00
2022-09-14T14:53:02.171Z,11.43
2022-09-14T14:55:33.293Z,12.35
2022-09-14T14:58:02.557Z,11.00
2022-09-14T15:00:32.571Z,11.73
2022-09-14T15:03:00.007Z,10.00
2022-09-14T15:05:27.457Z,9.07
2022-09-14T15:07:56.003Z,7.78
2022-09-14T15:10:25.829Z,14.48
2022-09-14T15:12:52.763Z,8.60
2022-09-14T15:15:23.924Z,5.50
2022-09-14T15:17:51.704Z,5.28
2022-09-14T15:20:19.938Z,5.32
2022-09-14T15:22:48.255Z,6.93
2022-09-14T15:25:17.219Z,5.55
2022-09-14T15:27:44.168Z,6.78
2022-09-14T15:30:12.387Z,5.22
2022-09-14T15:32:39.937Z,6.60
2022-09-14T15:35:10.047Z,8.75
2022-09-14T15:37:37.120Z,4.57
2022-09-14T15:40:04.949Z,6.22
2022-09-14T15:42:31.986Z,9.25
2022-09-14T15:44:58.826Z,6.75
2022-09-14T15:47:25.819Z,7.35
2022-09-14T15:49:52.934Z,11.63
2022-09-14T15:52:20.218Z,8.98
2022-09-14T15:54:47.426Z,11.63
2022-09-14T15:57:14.373Z,11.55
2022-09-14T15:59:41.365Z,13.25
2022-09-14T16:02:09.806Z,9.70
2022-09-14T16:04:37.840Z,11.23
2022-09-14T16:07:09.919Z,15.80
2022-09-14T16:09:38.810Z,17.33
2022-09-14T16:12:07.084Z,18.75
2022-09-14T16:14:34.287Z,13.52
2022-09-14T16:17:01.939Z,16.15
2022-09-14T16:19:29.252Z,17.98
2022-09-14T16:21:56.876Z,14.27
2022-09-14T16:24:25.407Z,15.07
2022-09-14T16:26:52.706Z,20.65
2022-09-14T16:29:22.133Z,13.63
2022-09-14T16:31:49.355Z,12.77
2022-09-14T16:34:25.673Z,12.52
2022-09-14T16:36:52.972Z,12.88
2022-09-14T16:39:25.380Z,16.98
2022-09-14T16:41:56.274Z,13.52
2022-09-14T16:44:25.986Z,14.80
2022-09-14T16:46:55.070Z,17.15
2022-09-14T16:49:26.988Z,18.00
2022-09-14T16:51:55.455Z,16.55
2022-09-14T16:54:24.441Z,16.50
2022-09-14T16:56:51.720Z,12.88
2022-09-14T16:59:20.553Z,13.50
2022-09-14T17:01:54.024Z,16.27
2022-09-14T17:04:22.289Z,13.38
2022-09-14T17:06:51.756Z,15.57
2022-09-14T17:09:25.262Z,14.48
2022-09-14T17:11:54.275Z,14.40
2022-09-14T17:14:27.285Z,15.30
2022-09-14T17:16:54.390Z,13.65
2022-09-14T17:19:21.840Z,11.73
2022-09-14T17:21:49.297Z,16.92
2022-09-14T17:24:19.322Z,10.50
2022-09-14T17:26:47.207Z,10.40
2022-09-14T17:29:15.342Z,10.07
2022-09-14T17:31:44.431Z,12.98
2022-09-14T17:34:13.421Z,11.07
2022-09-14T17:36:40.532Z,12.00
2022-09-14T17:39:11.606Z,12.90
2022-09-14T17:41:40.331Z,10.23
2022-09-14T17:44:09.927Z,7.55
2022-09-14T17:46:43.235Z,10.80
2022-09-14T17:49:16.106Z,8.50
2022-09-14T17:51:45.258Z,10.18
2022-09-14T17:54:12.841Z,7.55
2022-09-14T17:56:40.174Z,6.07
2022-09-14T17:59:15.639Z,5.15
2022-09-14T18:01:42.679Z,9.38
2022-09-14T18:04:12.164Z,10.20
2022-09-14T18:06:45.619Z,9.32
2022-09-14T18:09:15.446Z,9.77
2022-09-14T18:11:43.677Z,8.43
2022-09-14T18:14:14.721Z,13.68
2022-09-14T18:16:43.047Z,10.80
2022-09-14T18:19:10.396Z,9.73
2022-09-14T18:21:37.435Z,12.85
2022-09-14T18:24:05.086Z,10.68
2022-09-14T18:26:32.078Z,10.50
2022-09-14T18:28:59.221Z,8.68
2022-09-14T18:31:27.797Z,9.70
2022-09-14T18:33:59.306Z,12.45
2022-09-14T18:36:29.294Z,5.88
2022-09-14T18:41:28.606Z,11.68
2022-09-14T18:43:55.788Z,7.65
2022-09-14T18:46:27.617Z,11.85
2022-09-14T18:48:57.672Z,10.40
2022-09-14T18:51:25.495Z,14.10
2022-09-14T18:53:57.628Z,11.27
2022-09-14T18:56:25.142Z,16.52
2022-09-14T18:58:52.253Z,9.07
2022-09-14T19:01:21.618Z,10.88
2022-09-14T19:03:49.049Z,9.23
2022-09-14T19:06:18.076Z,8.93
2022-09-14T19:08:45.655Z,10.35
2022-09-14T19:11:24.327Z,12.57
2022-09-14T19:14:10.219Z,11.25
2022-09-14T19:16:39.429Z,15.15
2022-09-14T19:19:07.953Z,11.75
2022-09-14T19:21:35.716Z,10.88
2022-09-14T19:24:06.217Z,13.35
2022-09-14T19:26:44.790Z,8.43
2022-09-14T19:29:14.740Z,10.00
2022-09-14T19:31:42.119Z,17.67
2022-09-14T19:34:11.168Z,5.93
2022-09-14T19:36:38.254Z,11.80
2022-09-14T19:39:05.962Z,8.63
2022-09-14T19:41:34.720Z,14.32
2022-09-14T19:44:03.187Z,13.50
2022-09-14T19:46:31.558Z,6.97
2022-09-14T19:49:00.007Z,11.55
2022-09-14T19:51:29.019Z,7.00
2022-09-14T19:53:59.289Z,8.95
2022-09-14T19:56:30.759Z,8.30
2022-09-14T19:59:00.139Z,10.80
2022-09-14T20:01:29.454Z,7.18
2022-09-14T20:03:57.636Z,10.35
2022-09-14T20:06:32.153Z,4.93
2022-09-14T20:09:05.665Z,6.22
2022-09-14T20:11:34.982Z,8.45
2022-09-14T20:14:06.276Z,5.43
2022-09-14T20:16:42.206Z,9.52
2022-09-14T20:19:18.684Z,6.35
2022-09-14T20:21:51.072Z,6.95
2022-09-14T20:24:22.402Z,9.77
2022-09-14T20:26:52.003Z,6.30
2022-09-14T20:29:21.654Z,5.88
2022-09-14T20:31:55.951Z,13.70
2022-09-14T20:34:23.262Z,28.58
2022-09-14T20:36:52.468Z,8.13
2022-09-14T20:39:22.204Z,6.18
2022-09-14T20:41:49.540Z,10.82
2022-09-14T20:44:21.890Z,11.60
2022-09-14T20:46:49.907Z,4.55
2022-09-14T20:49:19.250Z,4.70
2022-09-14T20:51:46.838Z,8.63
2022-09-14T20:54:15.756Z,9.55
2022-09-14T20:56:43.705Z,4.72
2022-09-14T20:59:13.752Z,7.25
2022-09-14T21:01:43.285Z,7.50
2022-09-14T21:04:12.973Z,6.20
2022-09-14T21:06:46.218Z,15.27
2022-09-14T21:09:14.369Z,8.60
2022-09-14T21:11:42.233Z,7.07
2022-09-14T21:14:09.278Z,11.93
2022-09-14T21:16:38.422Z,4.15
2022-09-14T21:19:07.849Z,7.32
2022-09-14T21:21:35.675Z,13.90
2022-09-14T21:24:05.001Z,9.23
2022-09-14T21:26:34.456Z,8.45
2022-09-14T21:29:05.476Z,14.32
2022-09-14T21:31:34.655Z,5.53
2022-09-14T21:34:03.069Z,10.77
2022-09-14T21:36:34.716Z,11.70
2022-09-14T21:39:14.963Z,8.05
2022-09-14T21:41:43.422Z,12.10
2022-09-14T21:44:10.763Z,6.95
2022-09-14T21:46:38.037Z,13.48
2022-09-14T21:49:05.258Z,7.55
2022-09-14T21:51:37.702Z,9.63
2022-09-14T21:54:10.027Z,8.63
2022-09-14T21:56:39.655Z,8.27
2022-09-14T21:59:21.631Z,8.20
2022-09-14T22:01:49.369Z,7.38
2022-09-14T22:04:19.127Z,9.50
2022-09-14T22:06:46.651Z,9.80
2022-09-14T22:09:16.038Z,11.00
2022-09-14T22:11:43.314Z,7.13
2022-09-14T22:14:18.168Z,10.77
2022-09-14T22:16:45.982Z,12.65
2022-09-14T22:19:21.617Z,9.55
2022-09-14T22:21:49.496Z,6.65
2022-09-14T22:24:37.156Z,8.82
2022-09-14T22:27:09.597Z,10.05
2022-09-14T22:29:40.989Z,9.43
2022-09-14T22:32:10.306Z,7.65
2022-09-14T22:34:39.641Z,10.70
2022-09-14T22:37:07.235Z,7.88
2022-09-14T22:39:34.196Z,12.10
2022-09-14T22:42:01.188Z,12.90
2022-09-14T22:44:28.362Z,13.55
2022-09-14T22:46:55.380Z,8.35
2022-09-14T22:49:22.420Z,11.68
2022-09-14T22:51:49.403Z,12.57
2022-09-14T22:54:16.335Z,8.57
2022-09-14T22:56:43.315Z,9.10
2022-09-14T22:59:10.858Z,11.55
2022-09-14T23:01:40.032Z,9.38
2022-09-14T23:04:10.278Z,9.57
2022-09-14T23:06:40.711Z,10.27
2022-09-14T23:09:10.180Z,16.88
2022-09-14T23:11:37.809Z,9.37
2022-09-14T23:14:05.028Z,8.55
2022-09-14T23:16:32.136Z,9.57
2022-09-14T23:19:01.163Z,10.85
2022-09-14T23:21:29.989Z,6.18
2022-09-14T23:23:59.690Z,36.55
2022-09-14T23:26:27.525Z,6.88
2022-09-14T23:29:03.243Z,9.98
2022-09-14T23:31:32.176Z,20.02
2022-09-14T23:34:01.090Z,61.50
2022-09-14T23:36:28.634Z,26.58
2022-09-14T23:38:56.100Z,64.68
2022-09-14T23:41:24.833Z,74.88
2022-09-14T23:43:52.242Z,37.03
2022-09-14T23:46:20.351Z,63.97
2022-09-14T23:48:47.988Z,38.38
2022-09-14T23:51:15.649Z,42.80
2022-09-14T23:53:43.322Z,56.47
2022-09-14T23:56:11.324Z,38.88
2022-09-14T23:58:38.935Z,21.52
